Time;durP1;ratioP1;P1;durP2;ratioP2;P2;SDS_P1;SDS_P2;PMS_P1;PMS_P2;Temp;Humidity;BMP_temperature;BMP_pressure;BME280_temperature;BME280_humidity;BME280_pressure;Samples;Min_cycle;Max_cycle;Signal;HPM_P1;HPM_P2
2022/08/09 00:03:19;;;;;;;2.10;1.90;;;;;18.80;97069.00;;;;8329646;28;20278;-73
2022/08/09 00:07:43;;;;;;;4.57;2.00;;;;;18.80;97074.00;;;;8328065;28;20250;-73
2022/08/09 00:11:47;;;;;;;2.15;1.60;;;;;18.80;97064.00;;;;8314000;28;20235;-71
2022/08/09 00:16:06;;;;;;;2.20;2.10;;;;;18.70;97063.00;;;;8312457;28;20750;-72
2022/08/09 00:20:14;;;;;;;4.07;1.92;;;;;18.70;97070.00;;;;8325777;28;20239;-72
2022/08/09 00:24:20;;;;;;;2.63;2.42;;;;;18.60;97066.00;;;;8299054;28;20655;-71
2022/08/09 00:28:26;;;;;;;1.80;1.70;;;;;18.60;97069.00;;;;8316905;28;20272;-74
2022/08/09 00:32:29;;;;;;;2.00;1.90;;;;;18.60;97069.00;;;;8301840;28;20222;-73
2022/08/09 00:36:32;;;;;;;3.22;2.15;;;;;18.50;97067.00;;;;8313234;28;20233;-74
2022/08/09 00:40:37;;;;;;;3.65;2.17;;;;;18.20;97065.00;;;;8305607;28;20238;-73
2022/08/09 00:44:55;;;;;;;2.65;2.45;;;;;17.80;97063.00;;;;8306302;28;20229;-73
2022/08/09 00:48:59;;;;;;;5.57;2.17;;;;;17.50;97069.00;;;;8312364;28;20233;-73
2022/08/09 00:53:03;;;;;;;5.53;2.70;;;;;17.30;97069.00;;;;8295838;28;20700;-72
2022/08/09 00:57:15;;;;;;;5.47;2.45;;;;;17.10;97071.00;;;;8314623;28;20244;-73
2022/08/09 01:01:43;;;;;;;2.50;2.30;;;;;16.90;97058.00;;;;8305566;28;20316;-72
2022/08/09 01:05:52;;;;;;;2.65;2.45;;;;;16.70;97061.00;;;;8314860;28;20271;-72
2022/08/09 01:10:02;;;;;;;2.28;2.10;;;;;16.50;97051.00;;;;8284933;28;20955;-72
2022/08/09 01:14:23;;;;;;;5.93;2.40;;;;;16.30;97066.00;;;;8284413;28;20272;-72
2022/08/09 01:18:31;;;;;;;4.55;2.60;;;;;16.20;97064.00;;;;8308380;28;20236;-73
2022/08/09 01:23:17;;;;;;;5.13;2.65;;;;;16.10;97061.00;;;;8302123;28;20232;-72
2022/08/09 01:27:43;;;;;;;3.00;2.72;;;;;16.00;97067.00;;;;8286877;28;20310;-72
2022/08/09 01:31:55;;;;;;;3.63;2.30;;;;;16.00;97066.00;;;;8301317;28;21040;-73
2022/08/09 01:36:22;;;;;;;2.47;2.28;;;;;16.00;97068.00;;;;8299299;28;20237;-73
2022/08/09 01:40:28;;;;;;;3.25;2.78;;;;;15.80;97075.00;;;;8301007;28;20243;-72
2022/08/09 01:44:37;;;;;;;4.28;2.60;;;;;15.70;97070.00;;;;8293267;28;20332;-72
2022/08/09 01:48:41;;;;;;;2.58;2.20;;;;;15.70;97068.00;;;;8299640;28;20248;-72
2022/08/09 01:52:46;;;;;;;5.07;2.60;;;;;15.70;97066.00;;;;8307543;28;20704;-73
2022/08/09 01:56:59;;;;;;;2.63;2.42;;;;;15.70;97073.00;;;;8300031;28;20312;-72
2022/08/09 02:01:09;;;;;;;2.35;2.10;;;;;15.70;97076.00;;;;8291457;28;20641;-73
2022/08/09 02:05:23;;;;;;;5.38;2.47;;;;;15.90;97074.00;;;;8295787;28;20241;-74
2022/08/09 02:09:49;;;;;;;3.40;2.47;;;;;16.20;97082.00;;;;8284603;28;20244;-73
2022/08/09 02:14:04;;;;;;;2.72;2.53;;;;;16.40;97079.00;;;;8296280;28;20221;-73
2022/08/09 02:18:15;;;;;;;4.25;2.13;;;;;16.50;97080.00;;;;8293970;28;20237;-72
2022/08/09 02:22:28;;;;;;;3.28;2.35;;;;;16.70;97084.00;;;;8283011;28;20256;-72
2022/08/09 02:26:39;;;;;;;5.10;2.10;;;;;16.70;97080.00;;;;8282935;28;20244;-72
2022/08/09 02:30:48;;;;;;;3.65;2.60;;;;;16.80;97088.00;;;;8293121;28;20248;-73
2022/08/09 02:34:57;;;;;;;3.85;2.50;;;;;16.90;97087.00;;;;8319924;28;20781;-72
2022/08/09 02:39:04;;;;;;;2.58;2.20;;;;;16.90;97080.00;;;;8324163;28;20234;-72
2022/08/09 02:43:10;;;;;;;2.35;2.25;;;;;16.90;97084.00;;;;8342117;28;20224;-73
2022/08/09 02:47:17;;;;;;;2.67;2.47;;;;;16.80;97084.00;;;;8341418;28;20768;-71
2022/08/09 02:51:23;;;;;;;2.50;2.30;;;;;16.90;97097.00;;;;8327421;28;20239;-71
2022/08/09 02:55:31;;;;;;;2.40;2.20;;;;;16.80;97088.00;;;;8318134;28;20217;-70
2022/08/09 02:59:56;;;;;;;4.00;2.58;;;;;16.80;97086.00;;;;8295298;28;20743;-70
2022/08/09 03:04:28;;;;;;;4.38;2.78;;;;;16.40;97084.00;;;;8368594;22;20746;-72
2022/08/09 03:08:34;;;;;;;2.92;2.72;;;;;16.00;97082.00;;;;8392062;28;20318;-73
2022/08/09 03:12:39;;;;;;;3.25;3.03;;;;;15.50;97086.00;;;;8408609;28;20229;-72
2022/08/09 03:16:45;;;;;;;5.28;3.53;;;;;15.00;97086.00;;;;8412715;28;20229;-74
2022/08/09 03:20:52;;;;;;;3.33;2.92;;;;;14.70;97093.00;;;;8415098;28;20224;-74
2022/08/09 03:24:57;;;;;;;4.38;2.90;;;;;14.50;97091.00;;;;8424017;28;20309;-73
2022/08/09 03:29:22;;;;;;;3.75;3.05;;;;;14.20;97068.00;;;;8412367;28;20232;-73
2022/08/09 03:33:27;;;;;;;3.13;2.80;;;;;14.20;97083.00;;;;8446947;28;20215;-74
2022/08/09 03:37:50;;;;;;;5.20;2.65;;;;;14.60;97085.00;;;;8448850;28;20271;-74
2022/08/09 03:42:02;;;;;;;4.15;2.60;;;;;15.00;97096.00;;;;8447358;28;20311;-73
2022/08/09 03:46:09;;;;;;;6.03;2.88;;;;;15.30;97090.00;;;;8451560;28;20223;-73
2022/08/09 03:50:31;;;;;;;4.60;2.60;;;;;15.60;97090.00;;;;8447479;27;20213;-69
2022/08/09 03:54:38;;;;;;;5.85;2.60;;;;;15.80;97087.00;;;;8445880;27;20229;-69
2022/08/09 03:58:43;;;;;;;4.13;2.70;;;;;15.90;97095.00;;;;8448884;27;20240;-66
2022/08/09 04:02:48;;;;;;;6.38;2.58;;;;;16.00;97095.00;;;;8451062;27;20583;-69
2022/08/09 04:06:56;;;;;;;3.42;2.90;;;;;16.00;97095.00;;;;8468066;27;20263;-68
2022/08/09 04:11:00;;;;;;;2.78;2.63;;;;;15.60;97102.00;;;;8476125;27;20220;-67
2022/08/09 04:15:07;;;;;;;4.63;3.45;;;;;15.00;97100.00;;;;8476524;27;20227;-75
2022/08/09 04:19:13;;;;;;;5.07;3.10;;;;;14.70;97106.00;;;;8476680;27;20232;-70
2022/08/09 04:23:36;;;;;;;3.53;3.22;;;;;14.50;97096.00;;;;8469217;27;20226;-74
2022/08/09 04:27:41;;;;;;;5.30;3.47;;;;;14.40;97110.00;;;;8479637;27;20646;-72
2022/08/09 04:31:53;;;;;;;4.45;3.17;;;;;14.30;97110.00;;;;8470271;27;20239;-72
2022/08/09 04:35:59;;;;;;;4.50;3.35;;;;;14.10;97106.00;;;;8468803;27;20222;-68
2022/08/09 04:40:07;;;;;;;5.28;3.00;;;;;14.20;97114.00;;;;8467856;27;20229;-67
2022/08/09 04:44:11;;;;;;;5.47;3.05;;;;;14.20;97119.00;;;;8478128;27;20618;-69
2022/08/09 04:48:18;;;;;;;3.42;3.13;;;;;14.30;97118.00;;;;8469042;27;20834;-68
2022/08/09 04:52:22;;;;;;;8.55;2.95;;;;;14.50;97122.00;;;;8480256;27;20232;-69
2022/08/09 04:56:29;;;;;;;3.28;2.95;;;;;14.70;97124.00;;;;8475064;27;20219;-69
2022/08/09 05:00:34;;;;;;;6.30;2.97;;;;;14.70;97128.00;;;;8465078;27;20736;-68
2022/08/09 05:04:39;;;;;;;3.65;3.35;;;;;14.80;97134.00;;;;8468341;27;20241;-71
2022/08/09 05:08:43;;;;;;;5.38;3.38;;;;;14.80;97138.00;;;;8467331;27;20219;-67
2022/08/09 05:12:50;;;;;;;3.42;2.85;;;;;15.00;97127.00;;;;8472821;27;20642;-68
2022/08/09 05:16:58;;;;;;;3.60;2.90;;;;;15.30;97136.00;;;;8470075;27;20226;-67
2022/08/09 05:21:04;;;;;;;2.88;2.65;;;;;15.70;97141.00;;;;8479138;27;20257;-67
2022/08/09 05:25:25;;;;;;;3.00;2.67;;;;;16.20;97138.00;;;;8467501;27;20226;-69
2022/08/09 05:29:34;;;;;;;4.32;2.80;;;;;16.60;97138.00;;;;8475293;27;20262;-70
2022/08/09 05:33:37;;;;;;;5.45;2.35;;;;;17.00;97144.00;;;;8477550;27;20221;-67
2022/08/09 05:37:47;;;;;;;9.05;2.80;;;;;17.40;97150.00;;;;8467188;27;20854;-67
2022/08/09 05:41:52;;;;;;;4.85;2.70;;;;;17.60;97147.00;;;;8476990;27;20710;-67
2022/08/09 05:45:56;;;;;;;5.57;2.97;;;;;17.90;97161.00;;;;8465966;27;20223;-64
2022/08/09 05:49:59;;;;;;;4.18;2.22;;;;;18.10;97161.00;;;;8474897;27;20222;-64
2022/08/09 05:54:24;;;;;;;3.35;1.92;;;;;18.40;97163.00;;;;8468404;27;20278;-64
2022/08/09 05:58:27;;;;;;;2.60;2.38;;;;;18.60;97164.00;;;;8473128;27;20689;-63
2022/08/09 06:02:31;;;;;;;3.25;2.40;;;;;18.70;97172.00;;;;8471650;27;20851;-64
2022/08/09 06:06:34;;;;;;;4.13;2.67;;;;;18.90;97166.00;;;;8463790;27;20648;-63
2022/08/09 06:10:42;;;;;;;3.55;2.30;;;;;19.10;97169.00;;;;8465064;27;20226;-70
2022/08/09 06:14:45;;;;;;;3.10;2.13;;;;;19.30;97173.00;;;;8470332;27;20230;-70
2022/08/09 06:18:48;;;;;;;5.75;2.20;;;;;19.50;97180.00;;;;8477564;27;20226;-68
2022/08/09 06:22:52;;;;;;;2.40;2.17;;;;;19.70;97179.00;;;;8478380;27;20259;-67
2022/08/09 06:26:57;;;;;;;2.47;2.20;;;;;20.00;97189.00;;;;8471057;27;20318;-70
2022/08/09 06:31:00;;;;;;;2.95;2.30;;;;;20.10;97187.00;;;;8469099;27;20234;-70
2022/08/09 06:35:04;;;;;;;4.93;2.42;;;;;20.40;97185.00;;;;8477964;27;20216;-67
2022/08/09 06:39:11;;;;;;;4.35;2.20;;;;;20.70;97189.00;;;;8472906;27;20253;-68
2022/08/09 06:43:16;;;;;;;3.58;2.50;;;;;21.10;97195.00;;;;8469992;27;20311;-72
2022/08/09 06:47:21;;;;;;;2.10;2.00;;;;;21.50;97198.00;;;;8463974;27;20213;-68
2022/08/09 06:51:25;;;;;;;2.53;2.33;;;;;21.80;97194.00;;;;8460243;27;20302;-67
2022/08/09 06:55:31;;;;;;;3.28;2.33;;;;;22.20;97197.00;;;;8458544;27;20305;-65
2022/08/09 06:59:36;;;;;;;3.30;2.00;;;;;22.60;97205.00;;;;8462669;27;20226;-64
2022/08/09 07:03:59;;;;;;;2.40;2.13;;;;;23.00;97205.00;;;;8470315;27;20225;-66
2022/08/09 07:08:07;;;;;;;4.40;1.92;;;;;23.40;97212.00;;;;8453018;27;20670;-68
2022/08/09 07:12:11;;;;;;;6.43;2.30;;;;;23.60;97209.00;;;;8464848;27;20235;-64
2022/08/09 07:16:21;;;;;;;5.30;2.30;;;;;23.80;97198.00;;;;8456937;28;20218;-67
2022/08/09 07:20:44;;;;;;;2.25;2.05;;;;;24.30;97204.00;;;;8468210;27;20282;-64
2022/08/09 07:24:49;;;;;;;1.98;1.88;;;;;24.70;97203.00;;;;8472626;27;20301;-68
2022/08/09 07:28:54;;;;;;;2.22;2.10;;;;;25.20;97204.00;;;;8465655;27;20724;-67
2022/08/09 07:33:12;;;;;;;1.80;1.70;;;;;25.70;97213.00;;;;8468318;27;20308;-67
2022/08/09 07:37:18;;;;;;;5.75;2.50;;;;;25.90;97214.00;;;;8475176;27;20728;-66
2022/08/09 07:41:23;;;;;;;3.25;2.10;;;;;26.20;97226.00;;;;8471884;27;20318;-66
2022/08/09 07:45:29;;;;;;;3.30;2.00;;;;;26.20;97220.00;;;;8463947;28;20228;-66
2022/08/09 07:49:44;;;;;;;3.00;1.95;;;;;26.60;97222.00;;;;8468578;27;20261;-66
2022/08/09 07:54:07;;;;;;;3.20;1.95;;;;;26.80;97219.00;;;;8464899;27;20222;-66
2022/08/09 07:58:10;;;;;;;1.80;1.70;;;;;27.00;97222.00;;;;8463862;27;20223;-68
2022/08/09 08:02:15;;;;;;;1.95;1.80;;;;;27.20;97229.00;;;;8478075;27;20229;-66
2022/08/09 08:06:23;;;;;;;3.90;2.00;;;;;27.40;97225.00;;;;8465996;27;20244;-66
2022/08/09 08:10:34;;;;;;;2.30;1.98;;;;;27.40;97228.00;;;;8473687;27;20336;-64
2022/08/09 08:14:39;;;;;;;3.70;2.05;;;;;27.50;97228.00;;;;8475597;27;20309;-66
2022/08/09 08:18:42;;;;;;;6.97;1.92;;;;;27.70;97229.00;;;;8472879;27;20229;-67
2022/08/09 08:22:49;;;;;;;9.23;2.60;;;;;27.80;97232.00;;;;8467807;27;20234;-65
2022/08/09 08:26:57;;;;;;;2.92;1.90;;;;;27.70;97239.00;;;;8474588;27;20653;-68
2022/08/09 08:31:01;;;;;;;1.88;1.77;;;;;27.90;97225.00;;;;8478320;27;20258;-66
2022/08/09 08:35:17;;;;;;;2.70;2.17;;;;;28.60;97232.00;;;;8471199;27;20309;-66
2022/08/09 08:39:22;;;;;;;2.15;1.70;;;;;28.90;97231.00;;;;8464305;27;20233;-65
2022/08/09 08:43:26;;;;;;;2.20;1.73;;;;;29.50;97236.00;;;;8473402;27;20241;-66
2022/08/09 08:47:30;;;;;;;1.98;1.75;;;;;29.60;97235.00;;;;8474628;27;20595;-65
2022/08/09 08:51:40;;;;;;;2.40;1.70;;;;;30.00;97228.00;;;;8470432;27;20233;-66
2022/08/09 08:56:06;;;;;;;1.90;1.73;;;;;30.40;97234.00;;;;8480096;27;20225;-64
2022/08/09 09:00:27;;;;;;;2.08;1.80;;;;;30.40;97229.00;;;;8478909;27;20214;-66
2022/08/09 09:04:37;;;;;;;2.28;1.80;;;;;30.50;97229.00;;;;8476435;27;20286;-66
2022/08/09 09:08:56;;;;;;;3.22;2.00;;;;;30.90;97227.00;;;;8478421;27;20252;-66
2022/08/09 09:13:03;;;;;;;1.80;1.70;;;;;31.20;97229.00;;;;8466091;27;20237;-67
2022/08/09 09:17:11;;;;;;;6.00;1.80;;;;;30.70;97239.00;;;;8471886;27;20774;-68
2022/08/09 09:21:18;;;;;;;3.92;1.80;;;;;30.10;97226.00;;;;8466734;27;20221;-66
2022/08/09 09:25:36;;;;;;;4.07;1.83;;;;;29.70;97234.00;;;;8476619;27;20289;-65
2022/08/09 09:30:10;;;;;;;2.40;1.73;;;;;29.50;97230.00;;;;8471064;27;20234;-66
2022/08/09 09:34:33;;;;;;;3.08;1.73;;;;;30.10;97238.00;;;;8472873;27;20275;-66
2022/08/09 09:38:45;;;;;;;3.17;1.65;;;;;30.40;97235.00;;;;8469792;27;20539;-65
2022/08/09 09:42:55;;;;;;;2.28;1.77;;;;;30.20;97236.00;;;;8456463;27;20299;-65
2022/08/09 09:47:07;;;;;;;2.85;1.67;;;;;30.60;97232.00;;;;8474506;27;20305;-65
2022/08/09 09:51:20;;;;;;;1.52;1.42;;;;;30.50;97227.00;;;;8476253;27;20225;-67
2022/08/09 09:55:50;;;;;;;2.55;1.77;;;;;30.90;97230.00;;;;8470737;27;20229;-67
2022/08/09 10:00:22;;;;;;;2.00;1.80;;;;;30.40;97242.00;;;;8470171;27;20225;-66
2022/08/09 10:04:30;;;;;;;5.60;1.70;;;;;30.30;97225.00;;;;8472349;27;20264;-67
2022/08/09 10:08:33;;;;;;;2.28;1.77;;;;;29.90;97225.00;;;;8467427;27;20283;-65
2022/08/09 10:12:56;;;;;;;2.40;1.77;;;;;30.10;97217.00;;;;8471109;27;20233;-65
2022/08/09 10:17:10;;;;;;;2.13;1.88;;;;;30.70;97221.00;;;;8474317;27;20252;-65
2022/08/09 10:21:36;;;;;;;2.10;2.00;;;;;31.10;97221.00;;;;8470964;27;20229;-66
2022/08/09 10:25:40;;;;;;;3.47;1.70;;;;;31.10;97219.00;;;;8468350;27;20229;-66
2022/08/09 10:30:05;;;;;;;5.80;1.95;;;;;31.40;97217.00;;;;8462108;27;20226;-66
2022/08/09 10:34:30;;;;;;;7.55;1.80;;;;;31.20;97221.00;;;;8463754;27;20255;-67
2022/08/09 10:38:41;;;;;;;2.50;1.75;;;;;30.90;97208.00;;;;8459885;27;20233;-65
2022/08/09 10:43:02;;;;;;;1.83;1.60;;;;;31.20;97210.00;;;;8462424;27;20275;-66
2022/08/09 10:47:24;;;;;;;2.70;1.77;;;;;31.70;97202.00;;;;8461063;27;20879;-66
2022/08/09 10:52:05;;;;;;;3.63;1.83;;;;;32.10;97207.00;;;;8458119;27;20292;-68
2022/08/09 10:56:21;;;;;;;3.05;1.60;;;;;32.50;97195.00;;;;8465111;27;20219;-66
2022/08/09 11:00:36;;;;;;;1.83;1.67;;;;;32.40;97182.00;;;;8460385;27;20297;-65
2022/08/09 11:05:14;;;;;;;1.58;1.48;;;;;32.70;97177.00;;;;8459426;27;20250;-66
2022/08/09 11:09:51;;;;;;;4.32;1.40;;;;;32.80;97178.00;;;;8450341;27;20698;-66
2022/08/09 11:14:30;;;;;;;4.47;2.17;;;;;33.20;97179.00;;;;8474971;27;20236;-68
2022/08/09 11:18:44;;;;;;;2.50;1.70;;;;;33.70;97174.00;;;;8475814;28;20222;-66
2022/08/09 11:23:00;;;;;;;2.80;1.65;;;;;34.00;97178.00;;;;8478348;27;20255;-65
2022/08/09 11:27:30;;;;;;;2.72;1.60;;;;;33.90;97174.00;;;;8456314;27;20226;-67
2022/08/09 11:31:55;;;;;;;2.08;1.90;;;;;34.10;97168.00;;;;8469010;27;20628;-66
2022/08/09 11:36:01;;;;;;;1.67;1.45;;;;;34.00;97163.00;;;;8469695;27;20229;-67
2022/08/09 11:40:07;;;;;;;3.35;1.58;;;;;33.80;97170.00;;;;8477536;27;20310;-68
2022/08/09 11:44:11;;;;;;;1.92;1.75;;;;;34.00;97171.00;;;;8464931;27;20297;-67
2022/08/09 11:48:23;;;;;;;2.97;1.73;;;;;34.80;97163.00;;;;8476464;27;20260;-67
2022/08/09 11:52:30;;;;;;;1.45;1.35;;;;;35.70;97168.00;;;;8476428;27;20230;-66
2022/08/09 11:56:53;;;;;;;4.88;1.58;;;;;35.90;97175.00;;;;8477159;27;20279;-67
2022/08/09 12:00:58;;;;;;;2.08;1.45;;;;;35.50;97179.00;;;;8484076;27;20232;-66
2022/08/09 12:05:03;;;;;;;4.93;1.92;;;;;34.30;97167.00;;;;8470547;27;20317;-67
2022/08/09 12:09:10;;;;;;;4.53;1.67;;;;;33.60;97166.00;;;;8476209;27;20226;-67
2022/08/09 12:13:33;;;;;;;2.08;1.50;;;;;33.20;97168.00;;;;8475597;27;20222;-67
2022/08/09 12:17:56;;;;;;;3.78;1.73;;;;;32.90;97166.00;;;;8473579;27;20221;-68
2022/08/09 12:22:03;;;;;;;1.60;1.50;;;;;32.20;97163.00;;;;8481197;27;20222;-68
2022/08/09 12:26:07;;;;;;;3.15;1.67;;;;;31.80;97162.00;;;;8468214;27;20230;-67
2022/08/09 12:30:10;;;;;;;2.15;1.48;;;;;31.60;97159.00;;;;8479004;27;20229;-67
2022/08/09 12:34:35;;;;;;;2.33;1.63;;;;;31.00;97158.00;;;;8464959;27;20230;-68
2022/08/09 12:38:40;;;;;;;1.80;1.70;;;;;30.60;97166.00;;;;8485333;27;20222;-66
2022/08/09 12:42:45;;;;;;;3.10;1.60;;;;;30.60;97152.00;;;;8468730;27;20218;-68
2022/08/09 12:46:52;;;;;;;5.32;1.60;;;;;30.40;97150.00;;;;8482797;27;20222;-68
2022/08/09 12:50:57;;;;;;;2.90;1.70;;;;;30.40;97144.00;;;;8483673;27;20679;-67
2022/08/09 12:55:03;;;;;;;1.60;1.50;;;;;30.50;97150.00;;;;8477445;27;20700;-68
2022/08/09 12:59:32;;;;;;;1.70;1.60;;;;;30.30;97153.00;;;;8471855;27;20299;-68
2022/08/09 13:03:58;;;;;;;3.95;1.60;;;;;30.40;97146.00;;;;8466176;27;20278;-68
2022/08/09 13:08:14;;;;;;;1.85;1.75;;;;;30.40;97142.00;;;;8473713;27;20241;-67
2022/08/09 13:12:24;;;;;;;3.50;1.73;;;;;30.20;97133.00;;;;8483244;27;20230;-67
2022/08/09 13:16:42;;;;;;;4.60;1.70;;;;;30.30;97130.00;;;;8473568;27;20731;-68
2022/08/09 13:20:48;;;;;;;3.25;1.55;;;;;30.20;97137.00;;;;8474638;27;20241;-68
2022/08/09 13:25:11;;;;;;;1.38;1.35;;;;;30.50;97122.00;;;;8469386;27;20983;-67
2022/08/09 13:29:20;;;;;;;4.70;1.95;;;;;30.90;97134.00;;;;8483595;27;20232;-67
2022/08/09 13:33:43;;;;;;;2.80;1.40;;;;;30.90;97125.00;;;;8481131;27;20229;-68
2022/08/09 13:37:56;;;;;;;5.35;1.83;;;;;31.20;97125.00;;;;8476958;27;20655;-68
2022/08/09 13:42:01;;;;;;;3.55;1.60;;;;;31.80;97117.00;;;;8482165;27;20309;-67
2022/08/09 13:46:07;;;;;;;1.75;1.65;;;;;32.90;97111.00;;;;8469498;27;20218;-68
2022/08/09 13:50:30;;;;;;;1.80;1.63;;;;;33.20;97127.00;;;;8464652;27;20226;-66
2022/08/09 13:54:34;;;;;;;1.88;1.73;;;;;32.80;97129.00;;;;8479741;27;20931;-65
2022/08/09 13:58:43;;;;;;;3.38;1.77;;;;;31.90;97126.00;;;;8467356;27;20233;-65
2022/08/09 14:02:50;;;;;;;1.65;1.55;;;;;31.30;97130.00;;;;8474140;27;20316;-68
2022/08/09 14:07:13;;;;;;;3.95;1.77;;;;;31.60;97125.00;;;;8469206;27;20227;-66
2022/08/09 14:11:17;;;;;;;3.53;1.75;;;;;32.20;97122.00;;;;8481683;27;20230;-66
2022/08/09 14:15:20;;;;;;;5.75;1.95;;;;;32.60;97128.00;;;;8475924;27;20634;-66
2022/08/09 14:19:45;;;;;;;1.42;1.42;;;;;32.60;97127.00;;;;8464486;27;20277;-65
2022/08/09 14:23:51;;;;;;;1.80;1.70;;;;;32.90;97117.00;;;;8470967;27;20225;-65
2022/08/09 14:27:58;;;;;;;2.08;1.88;;;;;33.60;97121.00;;;;8462146;27;20215;-65
2022/08/09 14:32:01;;;;;;;1.85;1.60;;;;;34.50;97112.00;;;;8476044;27;20712;-67
2022/08/09 14:36:16;;;;;;;1.83;1.73;;;;;34.40;97123.00;;;;8469766;27;21024;-66
2022/08/09 14:40:23;;;;;;;4.65;1.88;;;;;33.10;97130.00;;;;8473633;27;20324;-66
2022/08/09 14:44:47;;;;;;;2.97;1.63;;;;;32.90;97124.00;;;;8465332;27;20228;-67
2022/08/09 14:49:03;;;;;;;2.63;1.80;;;;;33.40;97124.00;;;;8468177;27;20283;-65
2022/08/09 14:53:14;;;;;;;3.22;1.75;;;;;33.50;97123.00;;;;8457175;27;20238;-67
2022/08/09 14:57:18;;;;;;;3.63;1.67;;;;;33.90;97121.00;;;;8475390;27;20221;-65
2022/08/09 15:01:33;;;;;;;1.85;1.75;;;;;33.60;97117.00;;;;8467717;27;20331;-66
2022/08/09 15:05:38;;;;;;;3.28;1.73;;;;;33.50;97119.00;;;;8471101;27;20629;-67
2022/08/09 15:09:49;;;;;;;3.08;1.80;;;;;32.50;97125.00;;;;8473510;27;20509;-65
2022/08/09 15:14:12;;;;;;;1.60;1.50;;;;;31.60;97117.00;;;;8469249;27;20229;-66
2022/08/09 15:18:20;;;;;;;2.25;1.92;;;;;31.80;97122.00;;;;8476974;27;20625;-66
2022/08/09 15:22:23;;;;;;;1.77;1.67;;;;;31.90;97113.00;;;;8473491;27;20332;-65
2022/08/09 15:26:29;;;;;;;1.90;1.80;;;;;32.30;97110.00;;;;8468269;27;20223;-66
2022/08/09 15:30:34;;;;;;;3.00;1.70;;;;;32.60;97107.00;;;;8471119;28;20275;-66
2022/08/09 15:35:00;;;;;;;2.70;1.70;;;;;32.60;97113.00;;;;8465815;27;20255;-66
2022/08/09 15:39:25;;;;;;;3.35;1.67;;;;;32.90;97114.00;;;;8460789;28;20217;-65
2022/08/09 15:43:47;;;;;;;2.53;1.70;;;;;32.90;97117.00;;;;8475261;28;20655;-67
2022/08/09 15:47:50;;;;;;;1.63;1.52;;;;;32.90;97111.00;;;;8466053;28;20233;-66
2022/08/09 15:52:13;;;;;;;1.90;1.70;;;;;32.50;97112.00;;;;8470471;28;20272;-66
2022/08/09 15:56:17;;;;;;;3.65;1.80;;;;;31.60;97115.00;;;;8459870;28;20304;-69
2022/08/09 16:00:32;;;;;;;2.05;1.95;;;;;30.90;97112.00;;;;8464038;28;20246;-70
2022/08/09 16:04:37;;;;;;;2.63;1.98;;;;;30.50;97111.00;;;;8463296;28;20902;-66
2022/08/09 16:08:40;;;;;;;2.83;1.70;;;;;30.40;97104.00;;;;8464394;28;20233;-65
2022/08/09 16:12:50;;;;;;;1.88;1.77;;;;;30.10;97108.00;;;;8473405;27;20222;-66
2022/08/09 16:16:57;;;;;;;2.00;1.80;;;;;30.30;97101.00;;;;8467797;28;20327;-65
2022/08/09 16:21:06;;;;;;;2.38;1.67;;;;;30.50;97102.00;;;;8469911;27;20645;-67
2022/08/09 16:25:34;;;;;;;2.58;2.00;;;;;30.40;97098.00;;;;8475822;27;20270;-66
2022/08/09 16:29:42;;;;;;;3.13;1.90;;;;;30.50;97107.00;;;;8486029;27;20697;-66
2022/08/09 16:33:55;;;;;;;3.67;1.60;;;;;30.50;97104.00;;;;8480799;27;20229;-66
2022/08/09 16:38:06;;;;;;;1.95;1.85;;;;;30.70;97093.00;;;;8478975;27;20229;-65
2022/08/09 16:42:09;;;;;;;1.85;1.75;;;;;31.20;97096.00;;;;8487292;27;20224;-66
2022/08/09 16:46:18;;;;;;;3.65;1.85;;;;;31.10;97095.00;;;;8472628;27;20669;-66
2022/08/09 16:50:26;;;;;;;1.98;1.70;;;;;31.00;97098.00;;;;8480143;27;20718;-65
2022/08/09 16:54:36;;;;;;;2.15;1.70;;;;;31.20;97102.00;;;;8483409;27;20249;-66
2022/08/09 16:58:43;;;;;;;3.67;1.90;;;;;30.50;97099.00;;;;8484291;27;20290;-65
2022/08/09 17:02:52;;;;;;;6.40;2.00;;;;;30.70;97103.00;;;;8485399;27;20234;-65
2022/08/09 17:07:01;;;;;;;1.95;1.85;;;;;31.30;97099.00;;;;8486166;27;20214;-67
2022/08/09 17:11:24;;;;;;;2.35;1.60;;;;;31.50;97103.00;;;;8473581;27;20226;-65
2022/08/09 17:15:44;;;;;;;2.10;1.67;;;;;31.60;97104.00;;;;8477689;27;20242;-66
2022/08/09 17:20:02;;;;;;;2.10;1.85;;;;;31.80;97109.00;;;;8481401;27;20296;-67
2022/08/09 17:24:26;;;;;;;2.03;1.80;;;;;31.70;97110.00;;;;8479664;27;20217;-67
2022/08/09 17:28:33;;;;;;;4.38;1.70;;;;;31.50;97117.00;;;;8484222;27;20218;-65
2022/08/09 17:32:37;;;;;;;2.30;1.75;;;;;31.50;97116.00;;;;8477406;27;20249;-66
2022/08/09 17:36:40;;;;;;;1.80;1.70;;;;;31.30;97119.00;;;;8477358;27;20226;-66
2022/08/09 17:40:57;;;;;;;1.88;1.77;;;;;31.10;97125.00;;;;8471649;27;20225;-65
2022/08/09 17:45:01;;;;;;;3.60;1.88;;;;;30.70;97132.00;;;;8475609;27;20230;-66
2022/08/09 17:49:08;;;;;;;2.17;1.70;;;;;30.20;97139.00;;;;8465123;27;20226;-72
2022/08/09 17:53:11;;;;;;;2.05;1.60;;;;;29.40;97142.00;;;;8472967;27;20232;-70
2022/08/09 17:57:26;;;;;;;1.75;1.67;;;;;28.60;97141.00;;;;8472425;27;20663;-70
2022/08/09 18:01:49;;;;;;;7.28;1.75;;;;;28.00;97135.00;;;;8465149;27;20727;-70
2022/08/09 18:06:12;;;;;;;4.55;1.95;;;;;27.40;97138.00;;;;8464133;27;20724;-69
2022/08/09 18:10:33;;;;;;;3.50;1.70;;;;;27.00;97138.00;;;;8452786;27;20298;-69
2022/08/09 18:14:38;;;;;;;3.15;1.67;;;;;26.70;97141.00;;;;8461176;27;20278;-71
2022/08/09 18:18:56;;;;;;;1.85;1.67;;;;;26.40;97151.00;;;;8465590;27;20226;-69
2022/08/09 18:23:05;;;;;;;4.57;1.58;;;;;26.10;97148.00;;;;8473778;27;20571;-70
2022/08/09 18:27:09;;;;;;;2.60;1.80;;;;;25.90;97146.00;;;;8471810;27;20222;-69
2022/08/09 18:31:17;;;;;;;3.92;1.83;;;;;25.60;97148.00;;;;8467379;27;20236;-70
2022/08/09 18:35:34;;;;;;;2.97;1.77;;;;;25.40;97138.00;;;;8463807;27;20359;-68
2022/08/09 18:39:57;;;;;;;2.78;2.00;;;;;25.20;97142.00;;;;8467205;27;20230;-70
2022/08/09 18:44:00;;;;;;;2.10;1.90;;;;;25.00;97155.00;;;;8444867;27;20244;-70
2022/08/09 18:48:07;;;;;;;2.13;1.98;;;;;24.90;97152.00;;;;8471821;27;20218;-71
2022/08/09 18:52:11;;;;;;;2.17;2.00;;;;;24.70;97159.00;;;;8462500;27;20648;-71
2022/08/09 18:56:14;;;;;;;3.17;1.67;;;;;24.50;97171.00;;;;8462355;27;20341;-70
2022/08/09 19:00:19;;;;;;;2.70;1.83;;;;;24.40;97169.00;;;;8457724;27;20225;-70
2022/08/09 19:04:24;;;;;;;2.42;1.73;;;;;24.20;97178.00;;;;8462479;27;20337;-70
2022/08/09 19:08:37;;;;;;;3.67;1.58;;;;;24.10;97179.00;;;;8455485;27;20222;-70
2022/08/09 19:12:41;;;;;;;2.78;1.90;;;;;24.00;97182.00;;;;8462317;27;20228;-69
2022/08/09 19:16:52;;;;;;;1.98;1.80;;;;;23.80;97191.00;;;;8461868;27;20233;-70
2022/08/09 19:20:57;;;;;;;1.92;1.67;;;;;23.70;97196.00;;;;8461465;27;20305;-68
2022/08/09 19:25:02;;;;;;;2.15;1.95;;;;;23.50;97198.00;;;;8457502;28;20237;-68
2022/08/09 19:29:26;;;;;;;6.35;1.52;;;;;23.40;97199.00;;;;8463546;27;20226;-68
2022/08/09 19:33:29;;;;;;;2.97;1.90;;;;;23.30;97198.00;;;;8455738;27;20218;-66
2022/08/09 19:37:34;;;;;;;3.20;2.08;;;;;23.30;97190.00;;;;8461599;28;20226;-65
2022/08/09 19:41:57;;;;;;;2.28;1.60;;;;;23.20;97193.00;;;;8467260;27;20218;-65
2022/08/09 19:46:04;;;;;;;2.85;1.75;;;;;23.10;97204.00;;;;8460465;28;20872;-65
2022/08/09 19:50:08;;;;;;;7.95;2.13;;;;;23.00;97201.00;;;;8459816;28;20222;-64
2022/08/09 19:54:33;;;;;;;4.10;1.88;;;;;22.90;97203.00;;;;8471477;28;20279;-65
2022/08/09 19:58:36;;;;;;;3.38;1.67;;;;;22.80;97203.00;;;;8471392;27;20298;-67
2022/08/09 20:02:39;;;;;;;2.85;2.00;;;;;22.70;97212.00;;;;8473064;27;20755;-65
2022/08/09 20:07:05;;;;;;;2.42;1.70;;;;;22.60;97207.00;;;;8476280;27;20225;-65
2022/08/09 20:11:10;;;;;;;1.95;1.83;;;;;22.50;97213.00;;;;8475417;27;21587;-67
2022/08/09 20:15:18;;;;;;;1.80;1.70;;;;;22.40;97206.00;;;;8468910;27;20609;-65
2022/08/09 20:19:41;;;;;;;5.95;1.75;;;;;22.30;97208.00;;;;8467539;27;20259;-66
2022/08/09 20:23:56;;;;;;;3.72;1.95;;;;;22.20;97211.00;;;;8468898;27;20317;-67
2022/08/09 20:28:03;;;;;;;1.85;1.75;;;;;22.00;97217.00;;;;8470575;27;20675;-66
2022/08/09 20:32:10;;;;;;;5.38;1.88;;;;;21.80;97210.00;;;;8468666;27;20276;-67
2022/08/09 20:36:33;;;;;;;3.20;1.90;;;;;21.50;97219.00;;;;8469528;27;20233;-67
2022/08/09 20:40:37;;;;;;;1.85;1.75;;;;;21.40;97213.00;;;;8464691;27;20495;-67
2022/08/09 20:44:44;;;;;;;2.72;1.80;;;;;21.20;97222.00;;;;8468543;27;20210;-68
2022/08/09 20:49:06;;;;;;;4.97;2.10;;;;;21.00;97228.00;;;;8468837;27;20259;-68
2022/08/09 20:53:13;;;;;;;2.50;1.83;;;;;20.90;97220.00;;;;8470107;27;20248;-68
2022/08/09 20:57:36;;;;;;;4.95;2.03;;;;;20.60;97220.00;;;;8473799;27;20311;-67
2022/08/09 21:02:01;;;;;;;2.28;1.92;;;;;20.50;97219.00;;;;8471998;27;20286;-67